Sea-land Charger — WDB9948 — position and weather

sailwx.info

Track history (hours):
 
Tides and Currents Weather Stations Pressure Air Temp Water Temp Dewpoint Dewpoint Depression Visibility Wind Speed Wind Dir Waves Ship Positions

Sea-land Charger

Owner: MAERSK LINE, LIMITED, NORFOLK, VA. More information available from US FCC via Universal Licensing System.

Last reported at 2015-Mar-15 16:22 UTC. Time now 2015-Mar-28 22:16 UTC.
Position N 01°54' E 102°22'.
Warning: this ship's position is 13 days out of date.

Type: Cargo ship. MMSI: 303279000.

Date/timePositionNaut miles runAvg speedWind from/ knotsBaromVisibWave heightAir tempDewpointWater temp
2015-Mar-15 16:22N 01°54' E 102°22'1416.7
2015-Mar-15 15:32N 01°48' E 102°34'7615.2
2015-Mar-15 10:33N 01°14' E 103°42'4 0.7
2015-Mar-15 04:09N 01°17' E 103°45'0 0.0
2015-Mar-15 03:33N 01°17' E 103°45'0 0.0
2015-Mar-15 02:33N 01°17' E 103°45'0 0.0
2015-Mar-15 01:21N 01°17' E 103°45'0 0.0
2015-Mar-15 00:27N 01°17' E 103°45'0 0.0
2015-Mar-14 23:33N 01°17' E 103°45'0 0.0
2015-Mar-14 21:18N 01°17' E 103°45'0 0.2
2015-Mar-14 19:31N 01°16' E 103°45'3 2.7
2015-Mar-14 18:30N 01°14' E 103°47'0 0.1
2015-Mar-14 17:33N 01°14' E 103°47'0 0.0
2015-Mar-14 16:27N 01°14' E 103°47'2 2.0
2015-Mar-14 15:33N 01°13' E 103°48'9 9.1
2015-Mar-14 14:31N 01°15' E 103°57'1010.3
2015-Mar-14 13:33N 01°17' E 104°07'  
2015-Mar-10 15:21N 22°23' E 114°31'1 0.1
2015-Mar-10 03:10N 22°23' E 114°33'12214.1
2015-Mar-09 18:32N 22°43' E 116°42'10715.1
2015-Mar-09 11:25N 23°47' E 118°17'4816.1
2015-Mar-09 08:27N 24°17' E 118°57'35714.7
2015-Mar-08 08:11N 29°16' E 122°35'1816.8
2015-Mar-08 07:07N 29°34' E 122°35'1118.4
2015-Mar-08 06:32N 29°42' E 122°26'1313.4
2015-Mar-08 05:31N 29°49' E 122°13'1010.7
2015-Mar-08 04:33N 29°54' E 122°03'1 0.7
2015-Mar-08 03:16N 29°54' E 122°02'0 0.0
2015-Mar-08 00:10N 29°54' E 122°02'0 0.0
2015-Mar-07 22:22N 29°54' E 122°02'0 0.0
2015-Mar-07 21:31N 29°54' E 122°02'0 0.0
2015-Mar-07 20:28N 29°54' E 122°02'0 0.0
2015-Mar-07 19:22N 29°54' E 122°02'0 0.0
2015-Mar-07 18:19N 29°54' E 122°02'0 0.0
2015-Mar-07 17:28N 29°54' E 122°02'2 2.2
2015-Mar-07 16:33N 29°54' E 122°04'1110.9
2015-Mar-07 15:32N 29°48' E 122°15'1211.9
2015-Mar-07 14:33N 29°43' E 122°27'1513.1
2015-Mar-07 13:23N 29°44' E 122°45'50 8.5
2015-Mar-07 07:33N 30°31' E 122°27'1414.1
2015-Mar-07 06:32N 30°34' E 122°11'8 8.1
2015-Mar-07 05:33N 30°38' E 122°03'0 0.0
2015-Mar-07 04:32N 30°38' E 122°03'0 0.0
2015-Mar-07 03:26N 30°38' E 122°03'0 0.0
2015-Mar-07 02:32N 30°38' E 122°03'0 0.0
2015-Mar-07 01:32N 30°38' E 122°03'0 0.0
2015-Mar-07 00:08N 30°38' E 122°03'1 1.0
2015-Mar-06 23:33N 30°37' E 122°03'1010.3
2015-Mar-06 22:33N 30°33' E 122°14'6 6.0
2015-Mar-06 21:33N 30°32' E 122°21'3112.8
2015-Mar-06 19:08N 30°21' E 122°55'  
Track history (hours):
 
Tides and Currents Weather Stations Pressure Air Temp Water Temp Dewpoint Dewpoint Depression Visibility Wind Speed Wind Dir Waves Ship Positions

Sea-land Charger

Owner: MAERSK LINE, LIMITED, NORFOLK, VA. More information available from US FCC via Universal Licensing System.

Last reported at 2015-Mar-15 16:22 UTC. Time now 2015-Mar-28 22:16 UTC.
Position N 01°54' E 102°22'.
Warning: this ship's position is 13 days out of date.

Type: Cargo ship. MMSI: 303279000.

Date/timePositionNaut miles runAvg speedWind from/ knotsBaromVisibWave heightAir tempDewpointWater temp
2015-Mar-15 16:22N 01°54' E 102°22'1416.7
2015-Mar-15 15:32N 01°48' E 102°34'7615.2
2015-Mar-15 10:33N 01°14' E 103°42'4 0.7
2015-Mar-15 04:09N 01°17' E 103°45'0 0.0
2015-Mar-15 03:33N 01°17' E 103°45'0 0.0
2015-Mar-15 02:33N 01°17' E 103°45'0 0.0
2015-Mar-15 01:21N 01°17' E 103°45'0 0.0
2015-Mar-15 00:27N 01°17' E 103°45'0 0.0
2015-Mar-14 23:33N 01°17' E 103°45'0 0.0
2015-Mar-14 21:18N 01°17' E 103°45'0 0.2
2015-Mar-14 19:31N 01°16' E 103°45'3 2.7
2015-Mar-14 18:30N 01°14' E 103°47'0 0.1
2015-Mar-14 17:33N 01°14' E 103°47'0 0.0
2015-Mar-14 16:27N 01°14' E 103°47'2 2.0
2015-Mar-14 15:33N 01°13' E 103°48'9 9.1
2015-Mar-14 14:31N 01°15' E 103°57'1010.3
2015-Mar-14 13:33N 01°17' E 104°07'  
2015-Mar-10 15:21N 22°23' E 114°31'1 0.1
2015-Mar-10 03:10N 22°23' E 114°33'12214.1
2015-Mar-09 18:32N 22°43' E 116°42'10715.1
2015-Mar-09 11:25N 23°47' E 118°17'4816.1
2015-Mar-09 08:27N 24°17' E 118°57'35714.7
2015-Mar-08 08:11N 29°16' E 122°35'1816.8
2015-Mar-08 07:07N 29°34' E 122°35'1118.4
2015-Mar-08 06:32N 29°42' E 122°26'1313.4
2015-Mar-08 05:31N 29°49' E 122°13'1010.7
2015-Mar-08 04:33N 29°54' E 122°03'1 0.7
2015-Mar-08 03:16N 29°54' E 122°02'0 0.0
2015-Mar-08 00:10N 29°54' E 122°02'0 0.0
2015-Mar-07 22:22N 29°54' E 122°02'0 0.0
2015-Mar-07 21:31N 29°54' E 122°02'0 0.0
2015-Mar-07 20:28N 29°54' E 122°02'0 0.0
2015-Mar-07 19:22N 29°54' E 122°02'0 0.0
2015-Mar-07 18:19N 29°54' E 122°02'0 0.0
2015-Mar-07 17:28N 29°54' E 122°02'2 2.2
2015-Mar-07 16:33N 29°54' E 122°04'1110.9
2015-Mar-07 15:32N 29°48' E 122°15'1211.9
2015-Mar-07 14:33N 29°43' E 122°27'1513.1
2015-Mar-07 13:23N 29°44' E 122°45'50 8.5
2015-Mar-07 07:33N 30°31' E 122°27'1414.1
2015-Mar-07 06:32N 30°34' E 122°11'8 8.1
2015-Mar-07 05:33N 30°38' E 122°03'0 0.0
2015-Mar-07 04:32N 30°38' E 122°03'0 0.0
2015-Mar-07 03:26N 30°38' E 122°03'0 0.0
2015-Mar-07 02:32N 30°38' E 122°03'0 0.0
2015-Mar-07 01:32N 30°38' E 122°03'0 0.0
2015-Mar-07 00:08N 30°38' E 122°03'1 1.0
2015-Mar-06 23:33N 30°37' E 122°03'1010.3
2015-Mar-06 22:33N 30°33' E 122°14'6 6.0
2015-Mar-06 21:33N 30°32' E 122°21'3112.8
2015-Mar-06 19:08N 30°21' E 122°55'  

Dump ship's entire track history